sensor_id;sensor_type;location;lat;lon;timestamp;temperature;humidity
21801;DHT22;11062;51.164;16.924;2023-05-29T00:01:53;33.90;32.50
21801;DHT22;11062;51.164;16.924;2023-05-29T00:04:19;33.80;32.40
21801;DHT22;11062;51.164;16.924;2023-05-29T00:06:47;33.80;32.50
21801;DHT22;11062;51.164;16.924;2023-05-29T00:09:13;33.80;32.20
21801;DHT22;11062;51.164;16.924;2023-05-29T00:11:40;33.80;32.30
21801;DHT22;11062;51.164;16.924;2023-05-29T00:14:06;33.80;32.50
21801;DHT22;11062;51.164;16.924;2023-05-29T00:16:32;33.80;32.60
21801;DHT22;11062;51.164;16.924;2023-05-29T00:19:00;33.70;32.60
21801;DHT22;11062;51.164;16.924;2023-05-29T00:21:26;33.70;32.40
21801;DHT22;11062;51.164;16.924;2023-05-29T00:23:52;33.70;32.50
21801;DHT22;11062;51.164;16.924;2023-05-29T00:26:20;33.60;32.50
21801;DHT22;11062;51.164;16.924;2023-05-29T00:28:46;33.60;32.50
21801;DHT22;11062;51.164;16.924;2023-05-29T00:31:12;33.60;33.10
21801;DHT22;11062;51.164;16.924;2023-05-29T00:33:38;33.60;32.30
21801;DHT22;11062;51.164;16.924;2023-05-29T00:36:05;33.60;32.30
21801;DHT22;11062;51.164;16.924;2023-05-29T00:38:33;33.50;32.20
21801;DHT22;11062;51.164;16.924;2023-05-29T00:41:03;33.50;32.50
21801;DHT22;11062;51.164;16.924;2023-05-29T00:43:31;33.50;32.50
21801;DHT22;11062;51.164;16.924;2023-05-29T00:45:58;33.50;32.60
21801;DHT22;11062;51.164;16.924;2023-05-29T00:48:29;33.40;32.40
21801;DHT22;11062;51.164;16.924;2023-05-29T00:50:55;33.40;32.10
21801;DHT22;11062;51.164;16.924;2023-05-29T00:53:23;33.40;32.00
21801;DHT22;11062;51.164;16.924;2023-05-29T00:55:49;33.40;32.00
21801;DHT22;11062;51.164;16.924;2023-05-29T00:58:15;33.40;31.90
21801;DHT22;11062;51.164;16.924;2023-05-29T01:00:42;33.30;31.70
21801;DHT22;11062;51.164;16.924;2023-05-29T01:03:08;33.30;31.90
21801;DHT22;11062;51.164;16.924;2023-05-29T01:05:40;33.20;31.60
21801;DHT22;11062;51.164;16.924;2023-05-29T01:08:07;33.10;32.40
21801;DHT22;11062;51.164;16.924;2023-05-29T01:10:33;33.00;32.40
21801;DHT22;11062;51.164;16.924;2023-05-29T01:13:23;33.00;32.60
21801;DHT22;11062;51.164;16.924;2023-05-29T01:16:12;32.90;32.50
21801;DHT22;11062;51.164;16.924;2023-05-29T01:18:51;32.90;32.60
21801;DHT22;11062;51.164;16.924;2023-05-29T01:24:42;32.80;32.80
21801;DHT22;11062;51.164;16.924;2023-05-29T01:27:17;32.70;32.70
21801;DHT22;11062;51.164;16.924;2023-05-29T01:29:43;32.70;32.80
21801;DHT22;11062;51.164;16.924;2023-05-29T01:32:11;32.60;32.80
21801;DHT22;11062;51.164;16.924;2023-05-29T01:34:37;32.60;32.80
21801;DHT22;11062;51.164;16.924;2023-05-29T01:37:03;32.50;32.80
21801;DHT22;11062;51.164;16.924;2023-05-29T01:39:32;32.50;32.80
21801;DHT22;11062;51.164;16.924;2023-05-29T01:41:59;32.40;32.60
21801;DHT22;11062;51.164;16.924;2023-05-29T01:44:26;32.40;32.70
21801;DHT22;11062;51.164;16.924;2023-05-29T01:46:53;32.40;32.60
21801;DHT22;11062;51.164;16.924;2023-05-29T01:49:20;32.40;32.70
21801;DHT22;11062;51.164;16.924;2023-05-29T01:51:56;32.40;32.80
21801;DHT22;11062;51.164;16.924;2023-05-29T01:54:25;32.40;32.70
21801;DHT22;11062;51.164;16.924;2023-05-29T01:56:53;32.40;32.60
21801;DHT22;11062;51.164;16.924;2023-05-29T01:59:25;32.40;32.70
21801;DHT22;11062;51.164;16.924;2023-05-29T02:01:52;32.40;32.70
21801;DHT22;11062;51.164;16.924;2023-05-29T05:00:39;33.80;33.40
21801;DHT22;11062;51.164;16.924;2023-05-29T05:03:06;33.80;33.70
21801;DHT22;11062;51.164;16.924;2023-05-29T05:05:31;33.80;33.80
21801;DHT22;11062;51.164;16.924;2023-05-29T05:07:58;33.90;33.90
21801;DHT22;11062;51.164;16.924;2023-05-29T15:26:41;43.40;24.60
21801;DHT22;11062;51.164;16.924;2023-05-29T15:36:26;43.00;25.00
21801;DHT22;11062;51.164;16.924;2023-05-29T15:38:55;43.40;28.60
21801;DHT22;11062;51.164;16.924;2023-05-29T15:41:22;42.50;25.50
21801;DHT22;11062;51.164;16.924;2023-05-29T15:43:57;42.30;25.40
21801;DHT22;11062;51.164;16.924;2023-05-29T15:46:29;42.10;25.80
21801;DHT22;11062;51.164;16.924;2023-05-29T15:56:15;41.90;26.00
21801;DHT22;11062;51.164;16.924;2023-05-29T16:01:07;42.00;26.70
21801;DHT22;11062;51.164;16.924;2023-05-29T16:03:35;41.90;26.20
21801;DHT22;11062;51.164;16.924;2023-05-29T16:06:02;41.80;26.70
21801;DHT22;11062;51.164;16.924;2023-05-29T16:30:28;40.10;27.20
21801;DHT22;11062;51.164;16.924;2023-05-29T16:35:21;40.40;27.40
21801;DHT22;11062;51.164;16.924;2023-05-29T16:40:13;40.70;27.30
21801;DHT22;11062;51.164;16.924;2023-05-29T16:45:06;41.00;27.30
21801;DHT22;11062;51.164;16.924;2023-05-29T16:47:32;41.30;27.00
21801;DHT22;11062;51.164;16.924;2023-05-29T16:49:59;41.60;26.60
21801;DHT22;11062;51.164;16.924;2023-05-29T16:52:25;41.70;28.90
21801;DHT22;11062;51.164;16.924;2023-05-29T16:54:51;41.90;28.40
21801;DHT22;11062;51.164;16.924;2023-05-29T16:57:17;42.10;28.50
21801;DHT22;11062;51.164;16.924;2023-05-29T16:59:46;42.20;27.80
21801;DHT22;11062;51.164;16.924;2023-05-29T17:02:12;41.80;27.30
21801;DHT22;11062;51.164;16.924;2023-05-29T17:04:38;40.70;27.70
21801;DHT22;11062;51.164;16.924;2023-05-29T17:07:05;41.10;27.80
21801;DHT22;11062;51.164;16.924;2023-05-29T17:09:32;41.80;27.80
21801;DHT22;11062;51.164;16.924;2023-05-29T17:11:58;41.00;27.70
21801;DHT22;11062;51.164;16.924;2023-05-29T17:14:24;42.30;28.70
21801;DHT22;11062;51.164;16.924;2023-05-29T17:16:53;40.50;27.00
21801;DHT22;11062;51.164;16.924;2023-05-29T17:19:19;42.30;28.60
21801;DHT22;11062;51.164;16.924;2023-05-29T17:21:45;41.70;28.20
21801;DHT22;11062;51.164;16.924;2023-05-29T17:24:17;41.50;28.50
21801;DHT22;11062;51.164;16.924;2023-05-29T17:26:43;42.00;27.30
21801;DHT22;11062;51.164;16.924;2023-05-29T17:29:14;42.10;28.30
21801;DHT22;11062;51.164;16.924;2023-05-29T17:31:41;42.00;27.90
21801;DHT22;11062;51.164;16.924;2023-05-29T17:34:10;42.00;27.40
21801;DHT22;11062;51.164;16.924;2023-05-29T17:36:36;41.90;27.30
21801;DHT22;11062;51.164;16.924;2023-05-29T17:44:00;41.70;27.70
21801;DHT22;11062;51.164;16.924;2023-05-29T17:46:28;41.40;27.40
21801;DHT22;11062;51.164;16.924;2023-05-29T17:48:54;41.20;27.50
21801;DHT22;11062;51.164;16.924;2023-05-29T17:51:20;39.50;29.20
21801;DHT22;11062;51.164;16.924;2023-05-29T17:53:48;41.00;27.70
21801;DHT22;11062;51.164;16.924;2023-05-29T17:58:46;41.00;27.80
21801;DHT22;11062;51.164;16.924;2023-05-29T18:08:39;42.90;29.10
21801;DHT22;11062;51.164;16.924;2023-05-29T18:11:05;39.40;27.80
21801;DHT22;11062;51.164;16.924;2023-05-29T18:13:31;39.50;29.60
21801;DHT22;11062;51.164;16.924;2023-05-29T18:15:57;40.40;28.50
21801;DHT22;11062;51.164;16.924;2023-05-29T18:18:35;40.30;29.40
21801;DHT22;11062;51.164;16.924;2023-05-29T18:21:04;40.10;29.80
21801;DHT22;11062;51.164;16.924;2023-05-29T18:23:30;40.00;29.00
21801;DHT22;11062;51.164;16.924;2023-05-29T18:25:56;39.60;28.90
21801;DHT22;11062;51.164;16.924;2023-05-29T18:30:48;38.80;28.60
21801;DHT22;11062;51.164;16.924;2023-05-29T18:38:07;39.10;29.80
21801;DHT22;11062;51.164;16.924;2023-05-29T18:40:39;39.20;31.30
21801;DHT22;11062;51.164;16.924;2023-05-29T18:45:36;38.60;29.50
21801;DHT22;11062;51.164;16.924;2023-05-29T18:52:55;38.50;29.70
21801;DHT22;11062;51.164;16.924;2023-05-29T19:00:16;38.20;29.80
21801;DHT22;11062;51.164;16.924;2023-05-29T19:02:50;38.20;30.10
21801;DHT22;11062;51.164;16.924;2023-05-29T19:07:52;38.20;30.60
21801;DHT22;11062;51.164;16.924;2023-05-29T19:10:30;38.90;33.10
21801;DHT22;11062;51.164;16.924;2023-05-29T19:12:59;37.90;30.90
